ZLXY/XIY METAR and TAF weather

Enter ICAO airport designator
Station Type Date Time Source
ZLXY METAR 2020/09/27 17:00 UTC NOAA

ZLXY 271700Z 05004MPS 6000 NSC 18/15 Q1013 NOSIG


Station Type Date Time Source
ZLXY Decoded METAR 2020/09/27 17:00 UTC NOAA

Xian/Xianyang, China (ZLXY) 34-26N 108-45E
Sep 27, 2020 - 01:00 PM EDT / 2020.09.27 1700 UTC
Wind: from the NE (050 degrees) at 9 MPH (8 KT):0
Visibility: 3 mile(s):0
Temperature: 64 F (18 C)
Dew Point: 59 F (15 C)
Relative Humidity: 82%
Pressure (altimeter): 29.91 in. Hg (1013 hPa)
ob: ZLXY 271700Z 05004MPS 6000 NSC 18/15 Q1013 NOSIG
cycle: 17

Station Type Date Time Source
ZLXY TAF 2020/09/27 18:03 UTC NOAA

TAF ZLXY 271511Z 2718/2818 06004MPS 3000 BR OVC050 TX21/2808Z TN18/2721Z
BECMG 2721/2722 -RA
BECMG 2807/2808 BR

Example: see airport list